Terminal Aerodrome Forecast
Issued by NWS

Home | Current Version | Previous Version | Text Only | Print | Product List | Glossary On
Versions: 1 2 3 4 5 6 7 8 9 10 11 12 13 14 15 16 17 18 19 20
000
FTUS43 KILX 171100
TAFDEC
TAF
KDEC 171139Z 1712/1812 VRB03KT P6SM SCT050 BKN150
     FM171600 VRB05KT P6SM BKN050
     FM180000 06003KT P6SM SKC
      TEMPO 1809/1812 4SM BR=

USA.gov is the U.S. government's official web portal to all federal, state and local government web resources and services.